American Falls, ID (83211)

3:38 PM MDT on August 27, 2015 (GMT -0600)
HADS | | Change Station
CLOSE
Current Station
Personal Weather Station
Location: American Falls, ID
Elevation: 4297 ft
Nearby Weather Stations
Active Advisory: Severe Thunderstorm Warning

Elev 4297 ft 42.78 °N, 112.88 °W | Updated 53 minutes ago

Clear
Clear
86.0 °F
Feels Like 86.0 °F
N
0.0
Wind Variable Wind from North
Gusts 0.0 mph

Today
High -- | Low -- °F
--% Chance of Precip.
Yesterday
High -- | Low -- °F
Precip. -- in
6:51 AM 8:14 PM
Waxing Gibbous, 95% visible
Pressure 30.05 in
Visibility 10.0 miles
Clouds Few 6000 ft
Dew Point Not available.
Humidity Not available.
Rainfall in
Snow Depth Not available.
UV 8 out of 12
Pollen 7.90 out of 12
Air Quality Not available.
Flu Activity Not available.
METAR KPIH 272053Z 26012KT 10SM FEW060 31/07 A3018 RMK AO2 SLP175 60000 T03110067 58019
Pressure 30.05 in
Visibility 10.0 miles
Clouds Few 6000 ft
Dew Point Not available.
Humidity Not available.
Rainfall in
Snow Depth Not available.
UV 8 out of 12
Pollen 7.90 out of 12
Air Quality Not available.
Flu Activity Not available.
METAR KPIH 272053Z 26012KT 10SM FEW060 31/07 A3018 RMK AO2 SLP175 60000 T03110067 58019

10-Day Weather Forecast

×

Almanac

Astronomy

Aug. 27, 2015 Rise Set
Actual Time
Civil Twilight
Nautical Twilight
Astronomical Twilight
Moon
Length of Visible Light
Length of Day
Tomorrow will be .
, % of the Moon is Illuminated

Today's Extremes

State Highs State Lows

Community

WunderPhotos

Upload Photos

1,850,236 photos uploaded!

WunderBlogs® & News

Nearby

Air Quality

  Air Quality AQ Index Pollutant
Not available.

Snow Depth

Station Depth Elevation

Earthquake Activity

City Distance Mag. Time & Date
Minimum magnitude displayed is 2.5.

Coastal Water Temperatures

Place Temperature

Stations

Nearby Weather Stations

Station Location Temp. Windchill Dew Point Humidity Wind Precip. Elev Updated Type
                   
Severe Thunderstorm Warning
Statement as of 3:34 PM MDT on August 27, 2015

... A Severe Thunderstorm Warning remains in effect until 400 PM MDT
for northern Franklin and southeastern Bannock counties...

At 334 PM MDT... Doppler radar indicated a severe thunderstorm capable
of producing large damaging hail up to Golf Ball size and damaging
winds in excess of 60 mph. This storm was located near Thatcher... or
17 miles east of Swanlake... moving east at 10 mph.

Locations impacted include...
Swanlake and Oneida Narrows Reservoir.

Precautionary/preparedness actions...

Severe thunderstorms produce damaging winds... destructive hail...
deadly lightning and very heavy rain. For your protection move to an
interior room on the lowest floor of your home or business. Heavy
rains flood roads quickly so do not drive into areas where water
covers the Road.


Lat... Lon 4227 11201 4240 11200 4241 11163 4222 11164
time... Mot... loc 2134z 264deg 18kt 4238 11166


Hedges